Buoy 46930

sailwx.info

Track history (hours):
 
Tides and Currents Weather Stations Pressure Air Temp Water Temp Dewpoint Dewpoint Depression Visibility Wind Speed Wind Dir Waves Ship Positions

Drifting buoy 46930

Last reported at 2016-Jun-29 16:00 UTC. Time now 2016-Jun-29 18:18 UTC.
Position N 18°44' W 159°52'.

Date/timePositionNaut miles runAvg speedWind from/ knotsBaromVisibWave heightAir tempDewpointWater temp
2016-Jun-29 16:00N 18°44' W 159°52'1 1.2
2016-Jun-29 15:00N 18°45' W 159°51'1 0.6
2016-Jun-29 13:00N 18°45' W 159°49'5 0.9
2016-Jun-29 08:00N 18°48' W 159°45'1 0.7
2016-Jun-29 07:00N 18°48' W 159°45'1 1.1
2016-Jun-29 06:00N 18°49' W 159°45'1 0.4
2016-Jun-29 04:00N 18°50' W 159°44'1 1.4
2016-Jun-29 03:00N 18°51' W 159°43'0 0.3
2016-Jun-29 02:00N 18°51' W 159°43'4 0.7
2016-Jun-28 20:00N 18°54' W 159°41'1 0.4
2016-Jun-28 16:00N 18°55' W 159°40'0 0.4
2016-Jun-28 15:00N 18°55' W 159°40'1 0.7
2016-Jun-28 14:00N 18°56' W 159°40'4 0.6
2016-Jun-28 07:00N 18°59' W 159°37'0 0.2
2016-Jun-28 06:00N 18°59' W 159°37'1 1.0
2016-Jun-28 05:00N 19°00' W 159°36'1 0.7
2016-Jun-28 04:00N 19°01' W 159°36'1 1.0
2016-Jun-28 03:00N 19°02' W 159°36'0 0.5
2016-Jun-28 02:00N 19°02' W 159°35'0 0.0
2016-Jun-28 01:00N 19°02' W 159°35'1 0.4
2016-Jun-27 23:00N 19°03' W 159°35'1 0.1
2016-Jun-27 18:00N 19°03' W 159°35'0 0.2
2016-Jun-27 16:00N 19°03' W 159°35'0 0.3
2016-Jun-27 15:00N 19°04' W 159°35'1 0.5
2016-Jun-27 14:00N 19°04' W 159°35'2 0.3
2016-Jun-27 08:00N 19°06' W 159°35'1 1.2
2016-Jun-27 07:00N 19°07' W 159°34'0 0.0
2016-Jun-27 06:00N 19°07' W 159°34'1 0.9
2016-Jun-27 05:00N 19°07' W 159°34'0 0.3
2016-Jun-27 04:00N 19°08' W 159°34'2 0.9
2016-Jun-27 02:00N 19°09' W 159°33'1 0.9
2016-Jun-27 01:00N 19°10' W 159°33'0 0.0
2016-Jun-26 23:00N 19°10' W 159°33'0 0.2
2016-Jun-26 20:00N 19°10' W 159°33'0 0.1
2016-Jun-26 17:00N 19°11' W 159°33'0 0.5
2016-Jun-26 16:00N 19°11' W 159°33'1 1.0
2016-Jun-26 15:00N 19°12' W 159°33'2 0.3
2016-Jun-26 09:00N 19°14' W 159°34'0 0.1
2016-Jun-26 08:00N 19°14' W 159°34'0 0.0
2016-Jun-26 07:00N 19°14' W 159°34'1 1.5
2016-Jun-26 06:00N 19°13' W 159°32'1 1.2
2016-Jun-26 05:00N 19°14' W 159°33'1 0.9
2016-Jun-26 04:00N 19°15' W 159°33'1 0.5
2016-Jun-26 02:00N 19°16' W 159°33'1 0.8
2016-Jun-26 01:00N 19°16' W 159°33'1 0.4
2016-Jun-25 23:00N 19°17' W 159°33'1 0.2
2016-Jun-25 18:00N 19°17' W 159°34'0 0.3
2016-Jun-25 17:00N 19°18' W 159°34'1 0.6
2016-Jun-25 15:00N 19°19' W 159°34'5 0.7
2016-Jun-25 07:00N 19°23' W 159°38'1 0.8
2016-Jun-25 06:00N 19°23' W 159°39'1 0.4
2016-Jun-25 04:00N 19°24' W 159°39'0 0.3
2016-Jun-25 03:00N 19°24' W 159°39'1 0.5
2016-Jun-25 01:00N 19°25' W 159°39'4 0.7
2016-Jun-24 19:00N 19°26' W 159°43'0 0.1
2016-Jun-24 17:00N 19°25' W 159°44'0 0.2
2016-Jun-24 15:00N 19°26' W 159°44'0 0.2
2016-Jun-24 14:00N 19°26' W 159°44'4 0.7
2016-Jun-24 08:00N 19°30' W 159°45'0 0.0
2016-Jun-24 07:00N 19°30' W 159°45'1 1.0
2016-Jun-24 06:00N 19°30' W 159°46'0 0.3
2016-Jun-24 05:00N 19°30' W 159°46'1 0.6
2016-Jun-24 03:00N 19°31' W 159°47'6 0.8
2016-Jun-23 20:00N 19°36' W 159°50'4 1.2
2016-Jun-23 17:00N 19°37' W 159°54'1 0.7
2016-Jun-23 16:00N 19°37' W 159°55'2 1.2
2016-Jun-23 14:00N 19°38' W 159°57'3 0.6
2016-Jun-23 08:00N 19°39' W 160°00'0 0.5
2016-Jun-23 07:00N 19°40' W 160°01'1 0.7
2016-Jun-23 06:00N 19°40' W 160°01'1 0.8
2016-Jun-23 05:00N 19°40' W 160°02'0 0.1
2016-Jun-23 04:00N 19°39' W 160°02'0 0.2
2016-Jun-23 03:00N 19°40' W 160°02'0 0.3
2016-Jun-23 02:00N 19°40' W 160°02'1 0.4
2016-Jun-23 00:00N 19°41' W 160°02'2 0.8
2016-Jun-22 22:00N 19°42' W 160°03'1 0.4
2016-Jun-22 20:00N 19°43' W 160°03'1 0.6
2016-Jun-22 18:00N 19°43' W 160°05'1 1.0
2016-Jun-22 17:00N 19°44' W 160°05'1 1.0
2016-Jun-22 16:00N 19°44' W 160°06'3 2.8
2016-Jun-22 15:00N 19°45' W 160°08'5 0.6
2016-Jun-22 08:00N 19°48' W 160°12'2 1.6
2016-Jun-22 07:00N 19°49' W 160°13'0 0.1
2016-Jun-22 05:00N 19°49' W 160°14'1 0.7
2016-Jun-22 04:00N 19°49' W 160°14'1 1.0
2016-Jun-22 03:00N 19°49' W 160°15'1 0.4
2016-Jun-22 00:00N 19°49' W 160°17'2 0.3
2016-Jun-21 19:00N 19°49' W 160°18'0 0.0
2016-Jun-21 18:00N 19°49' W 160°18'1 0.6
2016-Jun-21 16:00N 19°49' W 160°20'1 0.2
2016-Jun-21 13:00N 19°50' W 160°20'0 0.0
2016-Jun-21 11:00N 19°50' W 160°20'2 0.5
2016-Jun-21 07:00N 19°51' W 160°21'1 0.9
2016-Jun-21 06:00N 19°52' W 160°22'0 0.5
2016-Jun-21 05:00N 19°52' W 160°21'1 0.7
2016-Jun-21 03:00N 19°53' W 160°23'1 0.4
2016-Jun-21 01:00N 19°54' W 160°22'1 0.7
2016-Jun-21 00:00N 19°54' W 160°23'1 0.9
2016-Jun-20 23:00N 19°55' W 160°23'0 0.0
2016-Jun-20 21:00N 19°55' W 160°23'2 0.4
2016-Jun-20 16:00N 19°56' W 160°25'1 0.8
2016-Jun-20 15:00N 19°57' W 160°26'1 0.1
2016-Jun-20 07:00N 19°57' W 160°27'0 0.4
2016-Jun-20 06:00N 19°58' W 160°27'0 0.1
2016-Jun-20 05:00N 19°58' W 160°27'0 0.3
2016-Jun-20 04:00N 19°58' W 160°27'1 0.7
2016-Jun-20 03:00N 19°58' W 160°27'0 0.3
2016-Jun-20 02:00N 19°58' W 160°27'0 0.0
2016-Jun-20 01:00N 19°58' W 160°27'2 0.3
2016-Jun-19 19:00N 20°00' W 160°26'0 0.2
2016-Jun-19 17:00N 20°00' W 160°26'0 0.3
2016-Jun-19 16:00N 20°01' W 160°26'  
Track history (hours):
 
Tides and Currents Weather Stations Pressure Air Temp Water Temp Dewpoint Dewpoint Depression Visibility Wind Speed Wind Dir Waves Ship Positions

Drifting buoy 46930

Last reported at 2016-Jun-29 16:00 UTC. Time now 2016-Jun-29 18:18 UTC.
Position N 18°44' W 159°52'.

Date/timePositionNaut miles runAvg speedWind from/ knotsBaromVisibWave heightAir tempDewpointWater temp
2016-Jun-29 16:00N 18°44' W 159°52'1 1.2
2016-Jun-29 15:00N 18°45' W 159°51'1 0.6
2016-Jun-29 13:00N 18°45' W 159°49'5 0.9
2016-Jun-29 08:00N 18°48' W 159°45'1 0.7
2016-Jun-29 07:00N 18°48' W 159°45'1 1.1
2016-Jun-29 06:00N 18°49' W 159°45'1 0.4
2016-Jun-29 04:00N 18°50' W 159°44'1 1.4
2016-Jun-29 03:00N 18°51' W 159°43'0 0.3
2016-Jun-29 02:00N 18°51' W 159°43'4 0.7
2016-Jun-28 20:00N 18°54' W 159°41'1 0.4
2016-Jun-28 16:00N 18°55' W 159°40'0 0.4
2016-Jun-28 15:00N 18°55' W 159°40'1 0.7
2016-Jun-28 14:00N 18°56' W 159°40'4 0.6
2016-Jun-28 07:00N 18°59' W 159°37'0 0.2
2016-Jun-28 06:00N 18°59' W 159°37'1 1.0
2016-Jun-28 05:00N 19°00' W 159°36'1 0.7
2016-Jun-28 04:00N 19°01' W 159°36'1 1.0
2016-Jun-28 03:00N 19°02' W 159°36'0 0.5
2016-Jun-28 02:00N 19°02' W 159°35'0 0.0
2016-Jun-28 01:00N 19°02' W 159°35'1 0.4
2016-Jun-27 23:00N 19°03' W 159°35'1 0.1
2016-Jun-27 18:00N 19°03' W 159°35'0 0.2
2016-Jun-27 16:00N 19°03' W 159°35'0 0.3
2016-Jun-27 15:00N 19°04' W 159°35'1 0.5
2016-Jun-27 14:00N 19°04' W 159°35'2 0.3
2016-Jun-27 08:00N 19°06' W 159°35'1 1.2
2016-Jun-27 07:00N 19°07' W 159°34'0 0.0
2016-Jun-27 06:00N 19°07' W 159°34'1 0.9
2016-Jun-27 05:00N 19°07' W 159°34'0 0.3
2016-Jun-27 04:00N 19°08' W 159°34'2 0.9
2016-Jun-27 02:00N 19°09' W 159°33'1 0.9
2016-Jun-27 01:00N 19°10' W 159°33'0 0.0
2016-Jun-26 23:00N 19°10' W 159°33'0 0.2
2016-Jun-26 20:00N 19°10' W 159°33'0 0.1
2016-Jun-26 17:00N 19°11' W 159°33'0 0.5
2016-Jun-26 16:00N 19°11' W 159°33'1 1.0
2016-Jun-26 15:00N 19°12' W 159°33'2 0.3
2016-Jun-26 09:00N 19°14' W 159°34'0 0.1
2016-Jun-26 08:00N 19°14' W 159°34'0 0.0
2016-Jun-26 07:00N 19°14' W 159°34'1 1.5
2016-Jun-26 06:00N 19°13' W 159°32'1 1.2
2016-Jun-26 05:00N 19°14' W 159°33'1 0.9
2016-Jun-26 04:00N 19°15' W 159°33'1 0.5
2016-Jun-26 02:00N 19°16' W 159°33'1 0.8
2016-Jun-26 01:00N 19°16' W 159°33'1 0.4
2016-Jun-25 23:00N 19°17' W 159°33'1 0.2
2016-Jun-25 18:00N 19°17' W 159°34'0 0.3
2016-Jun-25 17:00N 19°18' W 159°34'1 0.6
2016-Jun-25 15:00N 19°19' W 159°34'5 0.7
2016-Jun-25 07:00N 19°23' W 159°38'1 0.8
2016-Jun-25 06:00N 19°23' W 159°39'1 0.4
2016-Jun-25 04:00N 19°24' W 159°39'0 0.3
2016-Jun-25 03:00N 19°24' W 159°39'1 0.5
2016-Jun-25 01:00N 19°25' W 159°39'4 0.7
2016-Jun-24 19:00N 19°26' W 159°43'0 0.1
2016-Jun-24 17:00N 19°25' W 159°44'0 0.2
2016-Jun-24 15:00N 19°26' W 159°44'0 0.2
2016-Jun-24 14:00N 19°26' W 159°44'4 0.7
2016-Jun-24 08:00N 19°30' W 159°45'0 0.0
2016-Jun-24 07:00N 19°30' W 159°45'1 1.0
2016-Jun-24 06:00N 19°30' W 159°46'0 0.3
2016-Jun-24 05:00N 19°30' W 159°46'1 0.6
2016-Jun-24 03:00N 19°31' W 159°47'6 0.8
2016-Jun-23 20:00N 19°36' W 159°50'4 1.2
2016-Jun-23 17:00N 19°37' W 159°54'1 0.7
2016-Jun-23 16:00N 19°37' W 159°55'2 1.2
2016-Jun-23 14:00N 19°38' W 159°57'3 0.6
2016-Jun-23 08:00N 19°39' W 160°00'0 0.5
2016-Jun-23 07:00N 19°40' W 160°01'1 0.7
2016-Jun-23 06:00N 19°40' W 160°01'1 0.8
2016-Jun-23 05:00N 19°40' W 160°02'0 0.1
2016-Jun-23 04:00N 19°39' W 160°02'0 0.2
2016-Jun-23 03:00N 19°40' W 160°02'0 0.3
2016-Jun-23 02:00N 19°40' W 160°02'1 0.4
2016-Jun-23 00:00N 19°41' W 160°02'2 0.8
2016-Jun-22 22:00N 19°42' W 160°03'1 0.4
2016-Jun-22 20:00N 19°43' W 160°03'1 0.6
2016-Jun-22 18:00N 19°43' W 160°05'1 1.0
2016-Jun-22 17:00N 19°44' W 160°05'1 1.0
2016-Jun-22 16:00N 19°44' W 160°06'3 2.8
2016-Jun-22 15:00N 19°45' W 160°08'5 0.6
2016-Jun-22 08:00N 19°48' W 160°12'2 1.6
2016-Jun-22 07:00N 19°49' W 160°13'0 0.1
2016-Jun-22 05:00N 19°49' W 160°14'1 0.7
2016-Jun-22 04:00N 19°49' W 160°14'1 1.0
2016-Jun-22 03:00N 19°49' W 160°15'1 0.4
2016-Jun-22 00:00N 19°49' W 160°17'2 0.3
2016-Jun-21 19:00N 19°49' W 160°18'0 0.0
2016-Jun-21 18:00N 19°49' W 160°18'1 0.6
2016-Jun-21 16:00N 19°49' W 160°20'1 0.2
2016-Jun-21 13:00N 19°50' W 160°20'0 0.0
2016-Jun-21 11:00N 19°50' W 160°20'2 0.5
2016-Jun-21 07:00N 19°51' W 160°21'1 0.9
2016-Jun-21 06:00N 19°52' W 160°22'0 0.5
2016-Jun-21 05:00N 19°52' W 160°21'1 0.7
2016-Jun-21 03:00N 19°53' W 160°23'1 0.4
2016-Jun-21 01:00N 19°54' W 160°22'1 0.7
2016-Jun-21 00:00N 19°54' W 160°23'1 0.9
2016-Jun-20 23:00N 19°55' W 160°23'0 0.0
2016-Jun-20 21:00N 19°55' W 160°23'2 0.4
2016-Jun-20 16:00N 19°56' W 160°25'1 0.8
2016-Jun-20 15:00N 19°57' W 160°26'1 0.1
2016-Jun-20 07:00N 19°57' W 160°27'0 0.4
2016-Jun-20 06:00N 19°58' W 160°27'0 0.1
2016-Jun-20 05:00N 19°58' W 160°27'0 0.3
2016-Jun-20 04:00N 19°58' W 160°27'1 0.7
2016-Jun-20 03:00N 19°58' W 160°27'0 0.3
2016-Jun-20 02:00N 19°58' W 160°27'0 0.0
2016-Jun-20 01:00N 19°58' W 160°27'2 0.3
2016-Jun-19 19:00N 20°00' W 160°26'0 0.2
2016-Jun-19 17:00N 20°00' W 160°26'0 0.3
2016-Jun-19 16:00N 20°01' W 160°26'  

Dump ship's entire track history